sensor_id;sensor_type;location;lat;lon;timestamp;pressure;altitude;pressure_sealevel;temperature;humidity
64211;BME280;50528;48.514;14.394;2023-02-13T00:00:28;95691.45;;;2.83;82.78
64211;BME280;50528;48.514;14.394;2023-02-13T00:01:21;95691.95;;;2.80;82.90
64211;BME280;50528;48.514;14.394;2023-02-13T00:01:55;95692.70;;;2.79;82.50
64211;BME280;50528;48.514;14.394;2023-02-13T00:02:29;95690.42;;;2.80;82.93
64211;BME280;50528;48.514;14.394;2023-02-13T00:03:03;95692.02;;;2.79;82.72
64211;BME280;50528;48.514;14.394;2023-02-13T00:03:37;95691.65;;;2.80;82.80
64211;BME280;50528;48.514;14.394;2023-02-13T00:04:10;95690.39;;;2.80;82.78
64211;BME280;50528;48.514;14.394;2023-02-13T00:04:44;95689.93;;;2.80;82.75
64211;BME280;50528;48.514;14.394;2023-02-13T00:05:18;95691.14;;;2.79;82.74
64211;BME280;50528;48.514;14.394;2023-02-13T00:05:52;95694.71;;;2.80;82.67
64211;BME280;50528;48.514;14.394;2023-02-13T00:06:25;95690.56;;;2.80;82.72
64211;BME280;50528;48.514;14.394;2023-02-13T00:06:59;95692.71;;;2.81;82.77
64211;BME280;50528;48.514;14.394;2023-02-13T00:07:32;95692.66;;;2.80;82.75
64211;BME280;50528;48.514;14.394;2023-02-13T00:08:06;95691.34;;;2.81;82.67
64211;BME280;50528;48.514;14.394;2023-02-13T00:08:40;95692.64;;;2.82;82.71
64211;BME280;50528;48.514;14.394;2023-02-13T00:09:13;95692.75;;;2.84;82.67
64211;BME280;50528;48.514;14.394;2023-02-13T00:09:47;95692.96;;;2.86;82.48
64211;BME280;50528;48.514;14.394;2023-02-13T00:10:21;95692.29;;;2.83;82.41
64211;BME280;50528;48.514;14.394;2023-02-13T00:10:54;95689.14;;;2.82;82.34
64211;BME280;50528;48.514;14.394;2023-02-13T00:11:28;95689.96;;;2.79;82.46
64211;BME280;50528;48.514;14.394;2023-02-13T00:12:04;95689.20;;;2.78;82.53
64211;BME280;50528;48.514;14.394;2023-02-13T00:12:38;95689.30;;;2.71;82.47
64211;BME280;50528;48.514;14.394;2023-02-13T00:13:11;95694.28;;;2.64;82.74
64211;BME280;50528;48.514;14.394;2023-02-13T00:13:45;95690.52;;;2.60;83.01
64211;BME280;50528;48.514;14.394;2023-02-13T00:14:19;95694.45;;;2.59;82.88
64211;BME280;50528;48.514;14.394;2023-02-13T00:14:52;95687.65;;;2.56;83.29
64211;BME280;50528;48.514;14.394;2023-02-13T00:15:26;95690.36;;;2.58;83.36
64211;BME280;50528;48.514;14.394;2023-02-13T00:16:03;95687.16;;;2.62;83.17
64211;BME280;50528;48.514;14.394;2023-02-13T00:16:36;95688.64;;;2.65;83.20
64211;BME280;50528;48.514;14.394;2023-02-13T00:17:10;95687.34;;;2.69;83.22
64211;BME280;50528;48.514;14.394;2023-02-13T00:17:43;95686.30;;;2.68;83.24
64211;BME280;50528;48.514;14.394;2023-02-13T00:18:17;95686.09;;;2.63;83.14
64211;BME280;50528;48.514;14.394;2023-02-13T00:18:51;95691.13;;;2.58;83.20
64211;BME280;50528;48.514;14.394;2023-02-13T00:19:24;95679.34;;;2.46;83.03
64211;BME280;50528;48.514;14.394;2023-02-13T00:19:58;95688.71;;;2.51;83.53
64211;BME280;50528;48.514;14.394;2023-02-13T00:20:31;95679.90;;;2.44;83.73
64211;BME280;50528;48.514;14.394;2023-02-13T00:21:11;95688.69;;;2.51;83.49
64211;BME280;50528;48.514;14.394;2023-02-13T00:21:45;95688.44;;;2.59;83.66
64211;BME280;50528;48.514;14.394;2023-02-13T00:22:18;95687.16;;;2.68;83.44
64211;BME280;50528;48.514;14.394;2023-02-13T00:22:52;95683.72;;;2.67;83.33
64211;BME280;50528;48.514;14.394;2023-02-13T00:23:25;95684.02;;;2.69;83.17
64211;BME280;50528;48.514;14.394;2023-02-13T00:23:59;95658.00;;;2.57;83.06
64211;BME280;50528;48.514;14.394;2023-02-13T00:24:33;95683.53;;;2.68;83.21
64211;BME280;50528;48.514;14.394;2023-02-13T00:25:07;95685.56;;;2.65;83.35
64211;BME280;50528;48.514;14.394;2023-02-13T00:25:40;95685.38;;;2.63;83.39
64211;BME280;50528;48.514;14.394;2023-02-13T00:26:15;95683.20;;;2.56;83.62
64211;BME280;50528;48.514;14.394;2023-02-13T00:26:49;95683.54;;;2.52;83.87
64211;BME280;50528;48.514;14.394;2023-02-13T00:27:23;95684.40;;;2.51;84.06
64211;BME280;50528;48.514;14.394;2023-02-13T00:27:56;95684.54;;;2.47;84.10
64211;BME280;50528;48.514;14.394;2023-02-13T00:28:30;95682.16;;;2.45;84.12
64211;BME280;50528;48.514;14.394;2023-02-13T00:29:04;95681.39;;;2.49;84.56
64211;BME280;50528;48.514;14.394;2023-02-13T00:29:38;95680.23;;;2.56;84.11
64211;BME280;50528;48.514;14.394;2023-02-13T00:30:12;95677.36;;;2.57;84.09
64211;BME280;50528;48.514;14.394;2023-02-13T00:30:46;95680.06;;;2.49;84.04
64211;BME280;50528;48.514;14.394;2023-02-13T00:31:20;95684.48;;;2.46;84.10
64211;BME280;50528;48.514;14.394;2023-02-13T00:31:54;95682.67;;;2.45;84.23
64211;BME280;50528;48.514;14.394;2023-02-13T00:32:28;95682.61;;;2.46;84.19
64211;BME280;50528;48.514;14.394;2023-02-13T00:33:03;95685.77;;;2.47;84.18
64211;BME280;50528;48.514;14.394;2023-02-13T00:33:37;95686.99;;;2.48;84.38
64211;BME280;50528;48.514;14.394;2023-02-13T00:34:11;95683.05;;;2.45;84.33
64211;BME280;50528;48.514;14.394;2023-02-13T00:34:44;95690.70;;;2.50;84.36
64211;BME280;50528;48.514;14.394;2023-02-13T00:35:18;95689.12;;;2.50;84.43
64211;BME280;50528;48.514;14.394;2023-02-13T00:36:04;95688.38;;;2.49;84.35
64211;BME280;50528;48.514;14.394;2023-02-13T00:36:37;95690.46;;;2.50;84.26
64211;BME280;50528;48.514;14.394;2023-02-13T00:37:11;95685.10;;;2.54;84.65
64211;BME280;50528;48.514;14.394;2023-02-13T00:37:45;95688.90;;;2.59;84.47
64211;BME280;50528;48.514;14.394;2023-02-13T00:38:18;95690.61;;;2.64;84.15
64211;BME280;50528;48.514;14.394;2023-02-13T00:38:53;95689.99;;;2.64;84.10
64211;BME280;50528;48.514;14.394;2023-02-13T00:39:29;95689.77;;;2.60;84.17
64211;BME280;50528;48.514;14.394;2023-02-13T00:40:03;95698.19;;;2.55;84.18
64211;BME280;50528;48.514;14.394;2023-02-13T00:40:37;95693.63;;;2.50;84.32
64211;BME280;50528;48.514;14.394;2023-02-13T00:41:12;95696.45;;;2.49;84.23
64211;BME280;50528;48.514;14.394;2023-02-13T00:41:45;95698.20;;;2.49;84.36
64211;BME280;50528;48.514;14.394;2023-02-13T00:42:19;95695.36;;;2.50;84.49
64211;BME280;50528;48.514;14.394;2023-02-13T00:42:56;95698.11;;;2.54;84.43
64211;BME280;50528;48.514;14.394;2023-02-13T00:43:30;95696.52;;;2.56;84.44
64211;BME280;50528;48.514;14.394;2023-02-13T00:44:03;95696.76;;;2.53;84.42
64211;BME280;50528;48.514;14.394;2023-02-13T00:44:37;95698.63;;;2.54;84.37
64211;BME280;50528;48.514;14.394;2023-02-13T00:45:10;95699.67;;;2.55;84.41
64211;BME280;50528;48.514;14.394;2023-02-13T00:45:44;95696.92;;;2.57;84.43
64211;BME280;50528;48.514;14.394;2023-02-13T00:46:18;95699.48;;;2.59;84.63
64211;BME280;50528;48.514;14.394;2023-02-13T00:46:51;95697.65;;;2.60;84.49
64211;BME280;50528;48.514;14.394;2023-02-13T00:47:25;95699.75;;;2.61;84.48
64211;BME280;50528;48.514;14.394;2023-02-13T00:47:58;95698.81;;;2.62;84.70
64211;BME280;50528;48.514;14.394;2023-02-13T00:48:33;95698.98;;;2.62;84.51
64211;BME280;50528;48.514;14.394;2023-02-13T00:49:07;95699.27;;;2.63;84.56
64211;BME280;50528;48.514;14.394;2023-02-13T00:49:40;95696.70;;;2.65;84.55
64211;BME280;50528;48.514;14.394;2023-02-13T00:50:14;95697.91;;;2.66;84.37
64211;BME280;50528;48.514;14.394;2023-02-13T00:50:48;95691.61;;;2.63;84.16
64211;BME280;50528;48.514;14.394;2023-02-13T00:51:21;95694.38;;;2.63;84.34
64211;BME280;50528;48.514;14.394;2023-02-13T00:51:56;95698.37;;;2.63;84.26
64211;BME280;50528;48.514;14.394;2023-02-13T00:52:29;95696.10;;;2.63;84.18
64211;BME280;50528;48.514;14.394;2023-02-13T00:53:06;95699.73;;;2.65;84.24
64211;BME280;50528;48.514;14.394;2023-02-13T00:53:39;95696.52;;;2.66;84.46
64211;BME280;50528;48.514;14.394;2023-02-13T00:54:13;95700.45;;;2.64;84.16
64211;BME280;50528;48.514;14.394;2023-02-13T00:54:48;95697.54;;;2.65;84.29
64211;BME280;50528;48.514;14.394;2023-02-13T00:55:22;95696.53;;;2.64;84.26
64211;BME280;50528;48.514;14.394;2023-02-13T00:55:56;95700.52;;;2.64;84.23
64211;BME280;50528;48.514;14.394;2023-02-13T00:56:29;95696.15;;;2.65;84.48
64211;BME280;50528;48.514;14.394;2023-02-13T00:57:03;95697.46;;;2.65;84.06
64211;BME280;50528;48.514;14.394;2023-02-13T00:57:36;95695.29;;;2.66;84.27
64211;BME280;50528;48.514;14.394;2023-02-13T00:58:10;95693.86;;;2.66;84.09
64211;BME280;50528;48.514;14.394;2023-02-13T00:58:44;95695.50;;;2.67;84.10
64211;BME280;50528;48.514;14.394;2023-02-13T00:59:18;95694.21;;;2.68;84.19
64211;BME280;50528;48.514;14.394;2023-02-13T00:59:51;95696.42;;;2.68;83.86
64211;BME280;50528;48.514;14.394;2023-02-13T01:00:26;95698.14;;;2.67;83.98
64211;BME280;50528;48.514;14.394;2023-02-13T01:00:59;95702.38;;;2.70;84.13
64211;BME280;50528;48.514;14.394;2023-02-13T01:01:33;95701.92;;;2.71;83.93
64211;BME280;50528;48.514;14.394;2023-02-13T01:02:07;95702.94;;;2.71;83.91
64211;BME280;50528;48.514;14.394;2023-02-13T01:02:40;95702.77;;;2.71;84.08
64211;BME280;50528;48.514;14.394;2023-02-13T01:03:15;95700.41;;;2.70;83.90
64211;BME280;50528;48.514;14.394;2023-02-13T01:03:50;95701.27;;;2.70;84.03
64211;BME280;50528;48.514;14.394;2023-02-13T01:04:24;95697.64;;;2.70;84.08
64211;BME280;50528;48.514;14.394;2023-02-13T01:04:57;95700.36;;;2.70;84.10
64211;BME280;50528;48.514;14.394;2023-02-13T01:05:31;95703.29;;;2.71;84.05
64211;BME280;50528;48.514;14.394;2023-02-13T01:06:06;95700.30;;;2.71;84.04
64211;BME280;50528;48.514;14.394;2023-02-13T01:06:39;95700.42;;;2.72;84.05
64211;BME280;50528;48.514;14.394;2023-02-13T01:07:13;95699.13;;;2.72;83.84
64211;BME280;50528;48.514;14.394;2023-02-13T01:07:49;95700.48;;;2.72;83.92
64211;BME280;50528;48.514;14.394;2023-02-13T01:08:23;95697.84;;;2.73;84.09
64211;BME280;50528;48.514;14.394;2023-02-13T01:08:57;95695.55;;;2.74;83.86
64211;BME280;50528;48.514;14.394;2023-02-13T01:09:31;95696.31;;;2.76;83.84
64211;BME280;50528;48.514;14.394;2023-02-13T01:10:08;95698.83;;;2.74;83.71
64211;BME280;50528;48.514;14.394;2023-02-13T01:10:46;95698.35;;;2.73;83.94
64211;BME280;50528;48.514;14.394;2023-02-13T01:11:21;95697.42;;;2.72;83.84
64211;BME280;50528;48.514;14.394;2023-02-13T01:11:55;95698.34;;;2.72;83.79
64211;BME280;50528;48.514;14.394;2023-02-13T01:12:28;95700.36;;;2.72;83.87
64211;BME280;50528;48.514;14.394;2023-02-13T01:13:03;95696.30;;;2.71;83.93
64211;BME280;50528;48.514;14.394;2023-02-13T01:13:38;95695.14;;;2.69;83.91
64211;BME280;50528;48.514;14.394;2023-02-13T01:14:13;95695.73;;;2.70;83.89
64211;BME280;50528;48.514;14.394;2023-02-13T01:14:46;95695.51;;;2.71;83.93
64211;BME280;50528;48.514;14.394;2023-02-13T01:15:22;95699.77;;;2.71;83.95
64211;BME280;50528;48.514;14.394;2023-02-13T01:15:56;95694.98;;;2.71;83.64
64211;BME280;50528;48.514;14.394;2023-02-13T01:16:31;95697.58;;;2.69;83.91
64211;BME280;50528;48.514;14.394;2023-02-13T01:17:04;95682.88;;;2.61;83.95
64211;BME280;50528;48.514;14.394;2023-02-13T01:17:38;95699.05;;;2.68;83.87
64211;BME280;50528;48.514;14.394;2023-02-13T01:18:13;95700.48;;;2.69;84.05
64211;BME280;50528;48.514;14.394;2023-02-13T01:18:47;95697.54;;;2.69;83.93
64211;BME280;50528;48.514;14.394;2023-02-13T01:19:20;95697.38;;;2.70;83.77
64211;BME280;50528;48.514;14.394;2023-02-13T01:19:54;95695.27;;;2.70;83.90
64211;BME280;50528;48.514;14.394;2023-02-13T01:20:28;95695.10;;;2.69;84.03
64211;BME280;50528;48.514;14.394;2023-02-13T01:21:07;95695.55;;;2.70;83.83
64211;BME280;50528;48.514;14.394;2023-02-13T01:21:41;95689.46;;;2.71;83.99
64211;BME280;50528;48.514;14.394;2023-02-13T01:22:15;95691.19;;;2.71;83.80
64211;BME280;50528;48.514;14.394;2023-02-13T01:22:49;95691.08;;;2.72;83.88
64211;BME280;50528;48.514;14.394;2023-02-13T01:23:23;95690.47;;;2.73;83.94
64211;BME280;50528;48.514;14.394;2023-02-13T01:24:03;95691.26;;;2.73;84.08
64211;BME280;50528;48.514;14.394;2023-02-13T01:24:37;95691.04;;;2.74;83.88
64211;BME280;50528;48.514;14.394;2023-02-13T01:25:10;95688.08;;;2.74;83.88
64211;BME280;50528;48.514;14.394;2023-02-13T01:25:46;95688.08;;;2.74;83.79
64211;BME280;50528;48.514;14.394;2023-02-13T01:26:23;95685.35;;;2.73;83.85
64211;BME280;50528;48.514;14.394;2023-02-13T01:26:57;95686.90;;;2.76;83.86
64211;BME280;50528;48.514;14.394;2023-02-13T01:27:30;95687.28;;;2.77;83.67
64211;BME280;50528;48.514;14.394;2023-02-13T01:28:04;95687.28;;;2.77;83.69
64211;BME280;50528;48.514;14.394;2023-02-13T01:28:38;95684.55;;;2.76;83.58
64211;BME280;50528;48.514;14.394;2023-02-13T01:29:12;95685.98;;;2.76;83.72
64211;BME280;50528;48.514;14.394;2023-02-13T01:29:45;95685.02;;;2.75;83.81
64211;BME280;50528;48.514;14.394;2023-02-13T01:30:19;95689.95;;;2.74;83.93
64211;BME280;50528;48.514;14.394;2023-02-13T01:30:54;95688.88;;;2.75;83.93
64211;BME280;50528;48.514;14.394;2023-02-13T01:31:30;95689.06;;;2.74;83.74
64211;BME280;50528;48.514;14.394;2023-02-13T01:32:04;95687.86;;;2.74;83.97
64211;BME280;50528;48.514;14.394;2023-02-13T01:32:39;95684.52;;;2.75;83.81
64211;BME280;50528;48.514;14.394;2023-02-13T01:33:13;95682.02;;;2.75;83.81
64211;BME280;50528;48.514;14.394;2023-02-13T01:33:48;95687.77;;;2.77;83.80
64211;BME280;50528;48.514;14.394;2023-02-13T01:34:21;95684.27;;;2.74;83.61
64211;BME280;50528;48.514;14.394;2023-02-13T01:34:55;95688.45;;;2.75;83.73
64211;BME280;50528;48.514;14.394;2023-02-13T01:35:28;95687.74;;;2.75;83.58
64211;BME280;50528;48.514;14.394;2023-02-13T01:36:09;95689.55;;;2.75;83.79
64211;BME280;50528;48.514;14.394;2023-02-13T01:36:44;95688.09;;;2.74;83.66
64211;BME280;50528;48.514;14.394;2023-02-13T01:37:17;95686.55;;;2.76;83.70
64211;BME280;50528;48.514;14.394;2023-02-13T01:37:51;95688.29;;;2.77;83.73
64211;BME280;50528;48.514;14.394;2023-02-13T01:38:24;95686.39;;;2.73;83.65
64211;BME280;50528;48.514;14.394;2023-02-13T01:38:58;95689.48;;;2.72;83.86
64211;BME280;50528;48.514;14.394;2023-02-13T01:39:32;95689.52;;;2.72;83.85
64211;BME280;50528;48.514;14.394;2023-02-13T01:40:08;95683.91;;;2.72;83.68
64211;BME280;50528;48.514;14.394;2023-02-13T01:40:50;95688.39;;;2.72;83.77
64211;BME280;50528;48.514;14.394;2023-02-13T01:41:25;95686.27;;;2.71;83.76
64211;BME280;50528;48.514;14.394;2023-02-13T01:41:59;95688.45;;;2.72;83.77
64211;BME280;50528;48.514;14.394;2023-02-13T01:42:36;95683.77;;;2.70;83.89
64211;BME280;50528;48.514;14.394;2023-02-13T01:43:11;95685.60;;;2.73;83.69
64211;BME280;50528;48.514;14.394;2023-02-13T01:43:54;95684.92;;;2.73;83.74
64211;BME280;50528;48.514;14.394;2023-02-13T01:44:48;95685.58;;;2.73;83.70
64211;BME280;50528;48.514;14.394;2023-02-13T01:45:31;95685.70;;;2.72;83.65
64211;BME280;50528;48.514;14.394;2023-02-13T01:46:05;95683.17;;;2.71;83.77
64211;BME280;50528;48.514;14.394;2023-02-13T01:46:42;95681.17;;;2.72;83.77
64211;BME280;50528;48.514;14.394;2023-02-13T01:47:21;95680.02;;;2.73;83.70
64211;BME280;50528;48.514;14.394;2023-02-13T01:48:02;95680.25;;;2.73;83.59
64211;BME280;50528;48.514;14.394;2023-02-13T01:48:38;95680.08;;;2.73;83.74
64211;BME280;50528;48.514;14.394;2023-02-13T01:49:17;95684.56;;;2.73;83.52
64211;BME280;50528;48.514;14.394;2023-02-13T01:50:00;95680.90;;;2.73;83.72
64211;BME280;50528;48.514;14.394;2023-02-13T01:51:17;95675.96;;;2.72;83.53
64211;BME280;50528;48.514;14.394;2023-02-13T01:51:54;95677.43;;;2.73;83.76
64211;BME280;50528;48.514;14.394;2023-02-13T01:52:29;95678.16;;;2.73;83.64
64211;BME280;50528;48.514;14.394;2023-02-13T01:53:29;95673.14;;;2.73;83.65
64211;BME280;50528;48.514;14.394;2023-02-13T01:54:17;95673.52;;;2.71;83.58
64211;BME280;50528;48.514;14.394;2023-02-13T01:54:52;95670.31;;;2.70;83.65
64211;BME280;50528;48.514;14.394;2023-02-13T01:55:27;95670.05;;;2.71;83.49
64211;BME280;50528;48.514;14.394;2023-02-13T01:56:11;95670.79;;;2.69;83.63
64211;BME280;50528;48.514;14.394;2023-02-13T01:56:50;95673.30;;;2.70;83.59
64211;BME280;50528;48.514;14.394;2023-02-13T01:57:27;95674.59;;;2.69;83.62
64211;BME280;50528;48.514;14.394;2023-02-13T01:58:09;95670.75;;;2.67;83.85
64211;BME280;50528;48.514;14.394;2023-02-13T01:58:45;95674.10;;;2.69;83.77
64211;BME280;50528;48.514;14.394;2023-02-13T01:59:25;95675.33;;;2.65;83.71
64211;BME280;50528;48.514;14.394;2023-02-13T02:00:07;95675.90;;;2.65;83.63
64211;BME280;50528;48.514;14.394;2023-02-13T02:00:51;95670.66;;;2.63;83.77
64211;BME280;50528;48.514;14.394;2023-02-13T02:01:25;95675.25;;;2.64;83.55
64211;BME280;50528;48.514;14.394;2023-02-13T02:02:00;95670.54;;;2.64;83.73
64211;BME280;50528;48.514;14.394;2023-02-13T02:02:38;95672.67;;;2.65;83.74
64211;BME280;50528;48.514;14.394;2023-02-13T02:03:48;95675.31;;;2.67;83.71
64211;BME280;50528;48.514;14.394;2023-02-13T02:04:29;95672.15;;;2.64;83.66
64211;BME280;50528;48.514;14.394;2023-02-13T02:05:07;95674.91;;;2.64;83.81
64211;BME280;50528;48.514;14.394;2023-02-13T02:05:41;95669.59;;;2.63;83.82
64211;BME280;50528;48.514;14.394;2023-02-13T02:06:21;95671.77;;;2.66;83.51
64211;BME280;50528;48.514;14.394;2023-02-13T02:07:04;95667.48;;;2.65;83.72
64211;BME280;50528;48.514;14.394;2023-02-13T02:07:40;95667.72;;;2.65;83.92
64211;BME280;50528;48.514;14.394;2023-02-13T02:08:14;95668.80;;;2.66;83.71
64211;BME280;50528;48.514;14.394;2023-02-13T02:08:49;95673.69;;;2.67;83.77
64211;BME280;50528;48.514;14.394;2023-02-13T02:09:28;95669.66;;;2.68;83.58
64211;BME280;50528;48.514;14.394;2023-02-13T02:10:08;95666.48;;;2.69;83.62
64211;BME280;50528;48.514;14.394;2023-02-13T02:10:42;95662.84;;;2.69;83.77
64211;BME280;50528;48.514;14.394;2023-02-13T02:11:29;95667.45;;;2.69;83.58
64211;BME280;50528;48.514;14.394;2023-02-13T02:12:28;95664.89;;;2.69;83.86
64211;BME280;50528;48.514;14.394;2023-02-13T02:13:11;95666.07;;;2.67;83.72
64211;BME280;50528;48.514;14.394;2023-02-13T02:13:45;95668.66;;;2.67;83.93
64211;BME280;50528;48.514;14.394;2023-02-13T02:14:19;95665.46;;;2.68;83.75
64211;BME280;50528;48.514;14.394;2023-02-13T02:14:54;95662.25;;;2.69;83.65
64211;BME280;50528;48.514;14.394;2023-02-13T02:15:30;95669.33;;;2.71;83.68
64211;BME280;50528;48.514;14.394;2023-02-13T02:16:03;95665.50;;;2.71;83.86
64211;BME280;50528;48.514;14.394;2023-02-13T02:16:37;95668.52;;;2.72;83.66
64211;BME280;50528;48.514;14.394;2023-02-13T02:17:14;95668.66;;;2.72;83.58
64211;BME280;50528;48.514;14.394;2023-02-13T02:17:47;95666.14;;;2.74;83.68
64211;BME280;50528;48.514;14.394;2023-02-13T02:18:22;95667.15;;;2.74;83.67
64211;BME280;50528;48.514;14.394;2023-02-13T02:18:56;95664.46;;;2.75;83.74
64211;BME280;50528;48.514;14.394;2023-02-13T02:24:24;95667.98;;;2.69;83.61
64211;BME280;50528;48.514;14.394;2023-02-13T02:27:32;95663.43;;;2.66;83.63
64211;BME280;50528;48.514;14.394;2023-02-13T02:31:09;95660.58;;;2.64;83.71
64211;BME280;50528;48.514;14.394;2023-02-13T02:32:05;95665.24;;;2.64;83.61
64211;BME280;50528;48.514;14.394;2023-02-13T02:33:02;95661.59;;;2.62;83.59
64211;BME280;50528;48.514;14.394;2023-02-13T02:35:46;95656.10;;;2.55;83.60
64211;BME280;50528;48.514;14.394;2023-02-13T02:38:12;95663.40;;;2.60;83.74
64211;BME280;50528;48.514;14.394;2023-02-13T02:39:04;95661.63;;;2.62;83.73
64211;BME280;50528;48.514;14.394;2023-02-13T02:41:50;95660.61;;;2.61;83.86
64211;BME280;50528;48.514;14.394;2023-02-13T02:45:15;95665.28;;;2.58;84.09
64211;BME280;50528;48.514;14.394;2023-02-13T02:46:09;95661.52;;;2.58;83.81
64211;BME280;50528;48.514;14.394;2023-02-13T02:47:59;95663.02;;;2.57;84.04
64211;BME280;50528;48.514;14.394;2023-02-13T02:51:27;95660.08;;;2.50;83.78
64211;BME280;50528;48.514;14.394;2023-02-13T02:52:45;95660.17;;;2.48;83.80
64211;BME280;50528;48.514;14.394;2023-02-13T02:53:37;95663.40;;;2.49;83.93
64211;BME280;50528;48.514;14.394;2023-02-13T02:54:28;95658.48;;;2.45;84.03
64211;BME280;50528;48.514;14.394;2023-02-13T02:55:38;95661.90;;;2.43;84.04
64211;BME280;50528;48.514;14.394;2023-02-13T02:56:23;95666.19;;;2.44;83.82
64211;BME280;50528;48.514;14.394;2023-02-13T02:57:04;95663.70;;;2.43;84.04
64211;BME280;50528;48.514;14.394;2023-02-13T02:57:48;95663.02;;;2.44;84.05
64211;BME280;50528;48.514;14.394;2023-02-13T02:58:48;95659.92;;;2.44;83.93
64211;BME280;50528;48.514;14.394;2023-02-13T02:59:43;95662.41;;;2.43;84.21
64211;BME280;50528;48.514;14.394;2023-02-13T03:00:40;95658.64;;;2.43;84.20
64211;BME280;50528;48.514;14.394;2023-02-13T03:01:34;95661.33;;;2.44;84.09
64211;BME280;50528;48.514;14.394;2023-02-13T03:02:29;95659.56;;;2.44;84.22
64211;BME280;50528;48.514;14.394;2023-02-13T03:03:22;95659.05;;;2.44;84.16
64211;BME280;50528;48.514;14.394;2023-02-13T03:04:41;95655.55;;;2.45;84.34
64211;BME280;50528;48.514;14.394;2023-02-13T03:05:34;95656.54;;;2.43;84.08
64211;BME280;50528;48.514;14.394;2023-02-13T03:07:05;95647.80;;;2.41;84.21
64211;BME280;50528;48.514;14.394;2023-02-13T03:07:40;95653.75;;;2.40;84.25
64211;BME280;50528;48.514;14.394;2023-02-13T03:08:14;95652.15;;;2.41;84.18
64211;BME280;50528;48.514;14.394;2023-02-13T03:09:15;95652.54;;;2.42;84.22
64211;BME280;50528;48.514;14.394;2023-02-13T03:10:30;95655.05;;;2.41;84.26
64211;BME280;50528;48.514;14.394;2023-02-13T03:11:24;95655.36;;;2.41;84.28
64211;BME280;50528;48.514;14.394;2023-02-13T03:12:23;95653.71;;;2.42;84.26
64211;BME280;50528;48.514;14.394;2023-02-13T03:13:44;95656.11;;;2.42;84.48
64211;BME280;50528;48.514;14.394;2023-02-13T03:14:37;95655.88;;;2.40;84.50
64211;BME280;50528;48.514;14.394;2023-02-13T03:15:24;95657.67;;;2.41;84.51
64211;BME280;50528;48.514;14.394;2023-02-13T03:16:31;95658.58;;;2.42;84.25
64211;BME280;50528;48.514;14.394;2023-02-13T03:17:31;95660.52;;;2.42;84.36
64211;BME280;50528;48.514;14.394;2023-02-13T03:18:24;95662.37;;;2.42;84.31
64211;BME280;50528;48.514;14.394;2023-02-13T03:19:37;95661.95;;;2.43;84.33
64211;BME280;50528;48.514;14.394;2023-02-13T03:24:52;95657.63;;;2.34;84.23
64211;BME280;50528;48.514;14.394;2023-02-13T03:25:29;95655.20;;;2.34;84.33
64211;BME280;50528;48.514;14.394;2023-02-13T03:27:31;95656.07;;;2.36;84.29
64211;BME280;50528;48.514;14.394;2023-02-13T03:28:37;95657.04;;;2.35;84.43
64211;BME280;50528;48.514;14.394;2023-02-13T03:29:45;95655.13;;;2.35;84.46
64211;BME280;50528;48.514;14.394;2023-02-13T03:33:17;95655.65;;;2.35;84.21
64211;BME280;50528;48.514;14.394;2023-02-13T03:34:07;95651.30;;;2.35;84.44
64211;BME280;50528;48.514;14.394;2023-02-13T03:35:22;95650.70;;;2.35;84.31
64211;BME280;50528;48.514;14.394;2023-02-13T03:37:42;95650.53;;;2.34;84.60
64211;BME280;50528;48.514;14.394;2023-02-13T03:40:08;95654.37;;;2.41;84.52
64211;BME280;50528;48.514;14.394;2023-02-13T03:41:04;95640.77;;;2.37;84.40
64211;BME280;50528;48.514;14.394;2023-02-13T03:42:06;95649.89;;;2.42;84.47
64211;BME280;50528;48.514;14.394;2023-02-13T03:43:09;95650.40;;;2.42;84.39
64211;BME280;50528;48.514;14.394;2023-02-13T03:45:07;95649.88;;;2.42;84.68
64211;BME280;50528;48.514;14.394;2023-02-13T03:45:58;95649.52;;;2.42;84.82
64211;BME280;50528;48.514;14.394;2023-02-13T03:46:47;95653.88;;;2.42;84.73
64211;BME280;50528;48.514;14.394;2023-02-13T03:48:32;95656.61;;;2.41;84.75
64211;BME280;50528;48.514;14.394;2023-02-13T03:49:59;95657.27;;;2.41;84.66
64211;BME280;50528;48.514;14.394;2023-02-13T03:50:42;95657.15;;;2.41;84.70
64211;BME280;50528;48.514;14.394;2023-02-13T03:55:18;95637.70;;;2.26;85.14
64211;BME280;50528;48.514;14.394;2023-02-13T03:56:12;95653.65;;;2.38;84.83
64211;BME280;50528;48.514;14.394;2023-02-13T03:57:07;95653.78;;;2.38;84.85
64211;BME280;50528;48.514;14.394;2023-02-13T03:58:42;95651.79;;;2.36;84.65
64211;BME280;50528;48.514;14.394;2023-02-13T03:59:35;95653.92;;;2.37;84.99
64211;BME280;50528;48.514;14.394;2023-02-13T04:00:37;95652.84;;;2.37;84.82
64211;BME280;50528;48.514;14.394;2023-02-13T04:01:18;95657.72;;;2.39;84.76
64211;BME280;50528;48.514;14.394;2023-02-13T04:02:16;95654.52;;;2.39;84.77
64211;BME280;50528;48.514;14.394;2023-02-13T04:02:55;95654.67;;;2.40;84.77
64211;BME280;50528;48.514;14.394;2023-02-13T04:04:57;95654.40;;;2.41;84.77
64211;BME280;50528;48.514;14.394;2023-02-13T04:17:05;95646.93;;;3.02;84.17
64211;BME280;50528;48.514;14.394;2023-02-13T04:17:48;95648.20;;;3.00;84.11
64211;BME280;50528;48.514;14.394;2023-02-13T04:18:31;95648.52;;;2.99;84.31
64211;BME280;50528;48.514;14.394;2023-02-13T04:19:07;95647.52;;;2.99;84.35
64211;BME280;50528;48.514;14.394;2023-02-13T04:19:41;95650.05;;;2.99;84.44
64211;BME280;50528;48.514;14.394;2023-02-13T04:20:15;95648.42;;;3.00;84.27
64211;BME280;50528;48.514;14.394;2023-02-13T04:21:16;95639.55;;;2.90;84.27
64211;BME280;50528;48.514;14.394;2023-02-13T04:21:55;95650.23;;;2.96;84.46
64211;BME280;50528;48.514;14.394;2023-02-13T04:22:30;95650.75;;;2.96;84.38
64211;BME280;50528;48.514;14.394;2023-02-13T04:23:07;95648.38;;;2.95;84.25
64211;BME280;50528;48.514;14.394;2023-02-13T04:23:41;95648.07;;;2.96;84.23
64211;BME280;50528;48.514;14.394;2023-02-13T04:24:15;95650.91;;;2.98;84.06
64211;BME280;50528;48.514;14.394;2023-02-13T04:24:48;95645.64;;;2.95;84.10
64211;BME280;50528;48.514;14.394;2023-02-13T04:25:22;95647.43;;;2.98;84.00